Terminal Aerodrome Forecast
Issued by NWS

Home | Current Version | Previous Version | Text Only | Print | Product List | Glossary On
Versions: 1 2 3 4 5 6 7 8 9 10 11 12 13 14 15 16 17 18 19
728
FTUS43 KIND 010213 AAA
TAFBMG
TAF AMD
KBMG 010213Z 0102/0124 17006KT P6SM BKN015 OVC040
      TEMPO 0102/0104 4SM -RA BR
     FM010400 18005KT P6SM VCTS BKN015 OVC040CB
     FM011000 21005KT 4SM BR OVC005
     FM011700 27008KT P6SM SCT015 BKN040 PROB30 0120/0124 3SM TSRA
      BKN015CB OVC040
      AMD LTD TO CLD VIS AND WIND TIL 011300=

USA.gov is the U.S. government's official web portal to all federal, state and local government web resources and services.